CES501 ZSSS-VHHX
Flight info
| Callsign | CES501 |
|---|---|
| Flight time | 1h 54m |
| Altitude | 36100 |
| Route | NXD61D NXD W131 AKDIM A470 BEBEM/N0468F361 A470 MAGOG |
| Aircraft | A306/H-SDE3FGHIRWY/LB1 |
Departure
| Time | 2026-04-30 18:18 |
|---|---|
| Airport | Shanghai Hongqiao International Airport (ZSSS) |
Arrival
| Time | 2026-04-30 20:12 |
|---|---|
| Airport | Hong Kong International Airport Kai Tak (VHHX) |
| Time | Latitude | Longitude | Altitude | Speed | Heading |
|---|---|---|---|---|---|
| 2026-04-30 17:46 | 31.21124 | 121.32723 | 30 ft | 0 kts | 267° |
| 2026-04-30 18:09 | 31.21125 | 121.32759 | 28 ft | 4 kts | 274° |
| 2026-04-30 18:10 | 31.21100 | 121.32822 | 31 ft | 0 kts | 357° |
| 2026-04-30 18:14 | 31.21105 | 121.32822 | 31 ft | 3 kts | 357° |
| 2026-04-30 18:15 | 31.21190 | 121.32897 | 28 ft | 6 kts | 357° |
| 2026-04-30 18:15 | 31.21279 | 121.32910 | 28 ft | 2 kts | 53° |
| 2026-04-30 18:16 | 31.21286 | 121.32987 | 28 ft | 6 kts | 88° |
| 2026-04-30 18:16 | 31.21289 | 121.33081 | 25 ft | 6 kts | 86° |
| 2026-04-30 18:17 | 31.21292 | 121.33134 | 24 ft | 7 kts | 91° |
| 2026-04-30 18:17 | 31.21265 | 121.33168 | 25 ft | 6 kts | 163° |
| 2026-04-30 18:17 | 31.21225 | 121.33171 | 26 ft | 17 kts | 177° |
| 2026-04-30 18:18 | 31.20833 | 121.33192 | 25 ft | 93 kts | 177° |
| 2026-04-30 18:18 | 31.19972 | 121.33238 | 28 ft | 153 kts | 177° |
| 2026-04-30 18:18 | 31.18779 | 121.33296 | 396 ft | 178 kts | 178° |
| 2026-04-30 18:18 | 31.17532 | 121.33338 | 1232 ft | 183 kts | 181° |
| 2026-04-30 18:19 | 31.16190 | 121.33376 | 1862 ft | 202 kts | 181° |
| 2026-04-30 18:19 | 31.14748 | 121.33462 | 2601 ft | 213 kts | 179° |
| 2026-04-30 18:19 | 31.13185 | 121.33563 | 3061 ft | 239 kts | 179° |
| 2026-04-30 18:19 | 31.11471 | 121.33667 | 3464 ft | 258 kts | 179° |
| 2026-04-30 18:20 | 31.09632 | 121.33774 | 4106 ft | 271 kts | 178° |
| 2026-04-30 18:20 | 31.07750 | 121.33797 | 4998 ft | 278 kts | 187° |
| 2026-04-30 18:20 | 31.05919 | 121.33105 | 5942 ft | 279 kts | 215° |
| 2026-04-30 18:20 | 31.04613 | 121.31537 | 6918 ft | 275 kts | 244° |
| 2026-04-30 18:21 | 31.04086 | 121.29457 | 7970 ft | 265 kts | 272° |
| 2026-04-30 18:21 | 31.04278 | 121.27354 | 9122 ft | 259 kts | 285° |
| 2026-04-30 18:21 | 31.04655 | 121.25304 | 10224 ft | 258 kts | 287° |
| 2026-04-30 18:21 | 31.05052 | 121.23246 | 11130 ft | 263 kts | 287° |
| 2026-04-30 18:22 | 31.05465 | 121.21099 | 11605 ft | 282 kts | 287° |
| 2026-04-30 18:22 | 31.06365 | 121.16299 | 12288 ft | 322 kts | 287° |
| 2026-04-30 18:22 | 31.06756 | 121.13650 | 12601 ft | 343 kts | 279° |
| 2026-04-30 18:23 | 31.06597 | 121.10783 | 12917 ft | 367 kts | 264° |
| 2026-04-30 18:23 | 31.05936 | 121.07849 | 13416 ft | 379 kts | 259° |
| 2026-04-30 18:23 | 31.05182 | 121.04878 | 13988 ft | 384 kts | 259° |
| 2026-04-30 18:23 | 31.04418 | 121.01876 | 14578 ft | 387 kts | 259° |
| 2026-04-30 18:24 | 31.02906 | 120.95862 | 15918 ft | 387 kts | 259° |
| 2026-04-30 18:24 | 31.02150 | 120.92833 | 16490 ft | 391 kts | 259° |
| 2026-04-30 18:24 | 31.01391 | 120.89781 | 17129 ft | 392 kts | 259° |
| 2026-04-30 18:25 | 31.00631 | 120.86733 | 17766 ft | 392 kts | 259° |
| 2026-04-30 18:25 | 30.99107 | 120.80617 | 18849 ft | 394 kts | 259° |
| 2026-04-30 18:25 | 30.98350 | 120.77583 | 19292 ft | 396 kts | 259° |
| 2026-04-30 18:26 | 30.96805 | 120.71396 | 20172 ft | 399 kts | 260° |
| 2026-04-30 18:26 | 30.96027 | 120.68289 | 20613 ft | 400 kts | 260° |
| 2026-04-30 18:26 | 30.95246 | 120.65170 | 21054 ft | 402 kts | 260° |
| 2026-04-30 18:27 | 30.93674 | 120.58906 | 21898 ft | 404 kts | 260° |
| 2026-04-30 18:27 | 30.92883 | 120.55758 | 22301 ft | 406 kts | 260° |
| 2026-04-30 18:28 | 30.91261 | 120.49432 | 23096 ft | 411 kts | 258° |
| 2026-04-30 18:28 | 30.90157 | 120.46328 | 23481 ft | 420 kts | 251° |
| 2026-04-30 18:28 | 30.86610 | 120.40722 | 24081 ft | 446 kts | 233° |
| 2026-04-30 18:29 | 30.85011 | 120.39100 | 24229 ft | 454 kts | 228° |
| 2026-04-30 18:29 | 30.77184 | 120.32531 | 25004 ft | 467 kts | 224° |
| 2026-04-30 18:30 | 30.71815 | 120.28249 | 25535 ft | 469 kts | 224° |
| 2026-04-30 18:30 | 30.66482 | 120.23926 | 26018 ft | 471 kts | 224° |
| 2026-04-30 18:31 | 30.63766 | 120.21707 | 26310 ft | 471 kts | 225° |
| 2026-04-30 18:31 | 30.58430 | 120.17333 | 26744 ft | 474 kts | 225° |
| 2026-04-30 18:32 | 30.53032 | 120.12913 | 27259 ft | 475 kts | 225° |
| 2026-04-30 18:32 | 30.50300 | 120.10683 | 27569 ft | 474 kts | 225° |
| 2026-04-30 18:32 | 30.44937 | 120.06317 | 28181 ft | 473 kts | 224° |
| 2026-04-30 18:33 | 30.42138 | 120.04287 | 28557 ft | 476 kts | 221° |
| 2026-04-30 18:33 | 30.36425 | 120.00396 | 29191 ft | 476 kts | 220° |
| 2026-04-30 18:33 | 30.33558 | 119.98488 | 29517 ft | 475 kts | 220° |
| 2026-04-30 18:34 | 30.30686 | 119.96586 | 29831 ft | 475 kts | 220° |
| 2026-04-30 18:34 | 30.24958 | 119.92793 | 30451 ft | 473 kts | 220° |
| 2026-04-30 18:34 | 30.22109 | 119.90906 | 30791 ft | 471 kts | 220° |
| 2026-04-30 18:35 | 30.19269 | 119.89027 | 31148 ft | 468 kts | 220° |
| 2026-04-30 18:35 | 30.16448 | 119.87159 | 31526 ft | 465 kts | 220° |
| 2026-04-30 18:35 | 30.13653 | 119.85307 | 31920 ft | 463 kts | 220° |
| 2026-04-30 18:36 | 30.08096 | 119.81627 | 32692 ft | 458 kts | 220° |
| 2026-04-30 18:36 | 30.05332 | 119.79797 | 32997 ft | 457 kts | 220° |
| 2026-04-30 18:36 | 29.99894 | 119.76145 | 33831 ft | 449 kts | 220° |
| 2026-04-30 18:37 | 29.97206 | 119.74334 | 34201 ft | 447 kts | 220° |
| 2026-04-30 18:37 | 29.94523 | 119.72526 | 34469 ft | 446 kts | 220° |
| 2026-04-30 18:37 | 29.91845 | 119.70724 | 34701 ft | 446 kts | 220° |
| 2026-04-30 18:37 | 29.89139 | 119.68948 | 34950 ft | 450 kts | 217° |
| 2026-04-30 18:38 | 29.86241 | 119.67491 | 35214 ft | 461 kts | 209° |
| 2026-04-30 18:38 | 29.83098 | 119.66544 | 35454 ft | 474 kts | 199° |
| 2026-04-30 18:38 | 29.79803 | 119.66114 | 35780 ft | 478 kts | 194° |
| 2026-04-30 18:38 | 29.76472 | 119.65859 | 36047 ft | 480 kts | 192° |
| 2026-04-30 18:39 | 29.73130 | 119.65663 | 36195 ft | 481 kts | 192° |
| 2026-04-30 18:39 | 29.66454 | 119.65282 | 36214 ft | 480 kts | 192° |
| 2026-04-30 18:40 | 29.59769 | 119.64926 | 36214 ft | 482 kts | 191° |
| 2026-04-30 18:40 | 29.53065 | 119.64723 | 36220 ft | 480 kts | 191° |
| 2026-04-30 18:41 | 29.46413 | 119.64380 | 36213 ft | 477 kts | 192° |
| 2026-04-30 18:41 | 29.39770 | 119.63959 | 36218 ft | 477 kts | 192° |
| 2026-04-30 18:42 | 29.33184 | 119.63540 | 36182 ft | 477 kts | 192° |
| 2026-04-30 18:42 | 29.23249 | 119.62923 | 36222 ft | 477 kts | 192° |
| 2026-04-30 18:45 | 28.86838 | 119.60678 | 36227 ft | 476 kts | 191° |
| 2026-04-30 18:46 | 28.80219 | 119.60263 | 36225 ft | 476 kts | 191° |
| 2026-04-30 18:46 | 28.73610 | 119.59842 | 36230 ft | 475 kts | 191° |
| 2026-04-30 18:47 | 28.67013 | 119.59439 | 36233 ft | 475 kts | 191° |
| 2026-04-30 18:47 | 28.60414 | 119.59037 | 36235 ft | 475 kts | 191° |
| 2026-04-30 18:48 | 28.53868 | 119.58639 | 36236 ft | 473 kts | 191° |
| 2026-04-30 18:48 | 28.47298 | 119.58235 | 36237 ft | 472 kts | 191° |
| 2026-04-30 18:49 | 28.40739 | 119.57850 | 36240 ft | 472 kts | 190° |
| 2026-04-30 18:49 | 28.34165 | 119.57476 | 36239 ft | 473 kts | 190° |
| 2026-04-30 18:50 | 28.27602 | 119.57124 | 36240 ft | 472 kts | 190° |
| 2026-04-30 18:50 | 28.21044 | 119.56766 | 36240 ft | 471 kts | 190° |
| 2026-04-30 18:51 | 28.14495 | 119.56406 | 36249 ft | 471 kts | 190° |
| 2026-04-30 18:51 | 28.07974 | 119.56091 | 36224 ft | 473 kts | 189° |
| 2026-04-30 18:52 | 28.01395 | 119.55973 | 36238 ft | 472 kts | 188° |
| 2026-04-30 18:52 | 27.94825 | 119.55908 | 36246 ft | 472 kts | 187° |
| 2026-04-30 18:53 | 27.88253 | 119.55850 | 36240 ft | 472 kts | 187° |
| 2026-04-30 18:53 | 27.81673 | 119.55823 | 36246 ft | 473 kts | 187° |
| 2026-04-30 18:54 | 27.75091 | 119.55798 | 36239 ft | 473 kts | 187° |
| 2026-04-30 18:54 | 27.68510 | 119.55769 | 36235 ft | 473 kts | 187° |
| 2026-04-30 18:55 | 27.61924 | 119.55737 | 36234 ft | 473 kts | 187° |
| 2026-04-30 18:55 | 27.52071 | 119.55658 | 36229 ft | 471 kts | 187° |
| 2026-04-30 18:56 | 27.42257 | 119.55604 | 36231 ft | 470 kts | 187° |
| 2026-04-30 18:57 | 27.32481 | 119.55586 | 36247 ft | 470 kts | 187° |
| 2026-04-30 18:57 | 27.25940 | 119.55579 | 36226 ft | 469 kts | 187° |
| 2026-04-30 18:58 | 27.16161 | 119.55527 | 36227 ft | 468 kts | 188° |
| 2026-04-30 18:59 | 27.06398 | 119.55456 | 36223 ft | 468 kts | 187° |
| 2026-04-30 19:00 | 26.93367 | 119.55370 | 36223 ft | 468 kts | 187° |
| 2026-04-30 19:01 | 26.80343 | 119.55293 | 36220 ft | 468 kts | 188° |
| 2026-04-30 19:02 | 26.70574 | 119.55229 | 36216 ft | 468 kts | 187° |
| 2026-04-30 19:03 | 26.57556 | 119.55144 | 36222 ft | 468 kts | 187° |
| 2026-04-30 19:04 | 26.44579 | 119.55063 | 36213 ft | 467 kts | 187° |
| 2026-04-30 19:05 | 26.31579 | 119.54954 | 36216 ft | 466 kts | 187° |
| 2026-04-30 19:06 | 26.18829 | 119.53711 | 36228 ft | 452 kts | 201° |
| 2026-04-30 19:06 | 26.09819 | 119.50744 | 36227 ft | 449 kts | 204° |
| 2026-04-30 19:07 | 26.00868 | 119.47639 | 36229 ft | 449 kts | 204° |
| 2026-04-30 19:08 | 25.88916 | 119.43561 | 36215 ft | 449 kts | 204° |
| 2026-04-30 19:09 | 25.79946 | 119.40516 | 36212 ft | 449 kts | 203° |
| 2026-04-30 19:09 | 25.74307 | 119.37789 | 36209 ft | 436 kts | 218° |
| 2026-04-30 19:10 | 25.69731 | 119.33543 | 36200 ft | 427 kts | 229° |
| 2026-04-30 19:10 | 25.65661 | 119.28840 | 36197 ft | 426 kts | 231° |
| 2026-04-30 19:11 | 25.59603 | 119.21612 | 36188 ft | 427 kts | 231° |
| 2026-04-30 19:12 | 25.55538 | 119.16819 | 36208 ft | 427 kts | 231° |
| 2026-04-30 19:12 | 25.51455 | 119.12057 | 36182 ft | 426 kts | 231° |
| 2026-04-30 19:13 | 25.43318 | 119.02520 | 36183 ft | 426 kts | 231° |
| 2026-04-30 19:14 | 25.39240 | 118.97756 | 36185 ft | 426 kts | 231° |
| 2026-04-30 19:14 | 25.35861 | 118.93804 | 36189 ft | 426 kts | 231° |
| 2026-04-30 19:15 | 25.31817 | 118.89021 | 36172 ft | 426 kts | 232° |
| 2026-04-30 19:15 | 25.25826 | 118.81764 | 36173 ft | 426 kts | 232° |
| 2026-04-30 19:16 | 25.21840 | 118.76929 | 36172 ft | 425 kts | 232° |
| 2026-04-30 19:17 | 25.15854 | 118.69681 | 36179 ft | 426 kts | 232° |
| 2026-04-30 19:17 | 25.09838 | 118.62444 | 36176 ft | 426 kts | 232° |
| 2026-04-30 19:18 | 25.03721 | 118.55353 | 36172 ft | 427 kts | 230° |
| 2026-04-30 19:19 | 24.99592 | 118.50641 | 36171 ft | 427 kts | 230° |
| 2026-04-30 19:19 | 24.93409 | 118.43568 | 36170 ft | 427 kts | 230° |
| 2026-04-30 19:20 | 24.89290 | 118.38852 | 36172 ft | 427 kts | 230° |
| 2026-04-30 19:21 | 24.83102 | 118.31774 | 36171 ft | 428 kts | 230° |
| 2026-04-30 19:22 | 24.74836 | 118.22344 | 36169 ft | 428 kts | 230° |
| 2026-04-30 19:23 | 24.62417 | 118.08218 | 36164 ft | 428 kts | 230° |
| 2026-04-30 19:24 | 24.56198 | 118.01147 | 36167 ft | 429 kts | 230° |
| 2026-04-30 19:25 | 24.46171 | 117.89039 | 36164 ft | 428 kts | 232° |
| 2026-04-30 19:26 | 24.38153 | 117.79351 | 36163 ft | 430 kts | 231° |
| 2026-04-30 19:27 | 24.32104 | 117.72059 | 36165 ft | 431 kts | 231° |
| 2026-04-30 19:28 | 24.26044 | 117.64792 | 36163 ft | 431 kts | 231° |
| 2026-04-30 19:29 | 24.17961 | 117.55098 | 36145 ft | 431 kts | 231° |
| 2026-04-30 19:30 | 24.09414 | 117.45779 | 36158 ft | 436 kts | 226° |
| 2026-04-30 19:31 | 24.00410 | 117.36965 | 36156 ft | 436 kts | 225° |
| 2026-04-30 19:31 | 23.93625 | 117.30334 | 36148 ft | 436 kts | 225° |
| 2026-04-30 19:32 | 23.89085 | 117.25895 | 36148 ft | 439 kts | 225° |
| 2026-04-30 19:32 | 23.84529 | 117.21445 | 36156 ft | 440 kts | 225° |
| 2026-04-30 19:33 | 23.79974 | 117.16994 | 36150 ft | 440 kts | 225° |
| 2026-04-30 19:33 | 23.75457 | 117.12505 | 36145 ft | 438 kts | 227° |
| 2026-04-30 19:34 | 23.71214 | 117.07752 | 36124 ft | 437 kts | 229° |
| 2026-04-30 19:35 | 23.64941 | 117.00472 | 36134 ft | 440 kts | 229° |
| 2026-04-30 19:35 | 23.60724 | 116.95642 | 36131 ft | 440 kts | 229° |
| 2026-04-30 19:36 | 23.56478 | 116.90816 | 36142 ft | 440 kts | 229° |
| 2026-04-30 19:36 | 23.50139 | 116.83629 | 36134 ft | 441 kts | 229° |
| 2026-04-30 19:37 | 23.45891 | 116.78815 | 36128 ft | 441 kts | 229° |
| 2026-04-30 19:37 | 23.41261 | 116.74403 | 36135 ft | 443 kts | 221° |
| 2026-04-30 19:38 | 23.36384 | 116.70283 | 36146 ft | 444 kts | 220° |
| 2026-04-30 19:38 | 23.31464 | 116.66217 | 36138 ft | 444 kts | 220° |
| 2026-04-30 19:39 | 23.26546 | 116.62154 | 36144 ft | 444 kts | 220° |
| 2026-04-30 19:39 | 23.21625 | 116.58080 | 36134 ft | 443 kts | 220° |
| 2026-04-30 19:40 | 23.16728 | 116.54023 | 36138 ft | 443 kts | 220° |
| 2026-04-30 19:40 | 23.11817 | 116.49955 | 36132 ft | 444 kts | 220° |
| 2026-04-30 19:41 | 23.06897 | 116.45884 | 36135 ft | 444 kts | 220° |
| 2026-04-30 19:41 | 23.01984 | 116.41823 | 36122 ft | 444 kts | 220° |
| 2026-04-30 19:42 | 22.97088 | 116.37781 | 36118 ft | 445 kts | 220° |
| 2026-04-30 19:42 | 22.92168 | 116.33712 | 36120 ft | 445 kts | 220° |
| 2026-04-30 19:43 | 22.87256 | 116.29631 | 36128 ft | 445 kts | 220° |
| 2026-04-30 19:44 | 22.79888 | 116.23513 | 36121 ft | 446 kts | 220° |
| 2026-04-30 19:44 | 22.74943 | 116.19413 | 36128 ft | 448 kts | 220° |
| 2026-04-30 19:45 | 22.69989 | 116.15330 | 36123 ft | 446 kts | 220° |
| 2026-04-30 19:45 | 22.65046 | 116.11301 | 36122 ft | 444 kts | 220° |
| 2026-04-30 19:46 | 22.60115 | 116.07284 | 36120 ft | 444 kts | 220° |
| 2026-04-30 19:46 | 22.55182 | 116.03267 | 36117 ft | 444 kts | 220° |
| 2026-04-30 19:47 | 22.50247 | 115.99253 | 36110 ft | 444 kts | 220° |
| 2026-04-30 19:47 | 22.45317 | 115.95247 | 36110 ft | 443 kts | 220° |
| 2026-04-30 19:48 | 22.40411 | 115.91265 | 36112 ft | 440 kts | 220° |
| 2026-04-30 19:48 | 22.35523 | 115.87299 | 36115 ft | 439 kts | 220° |
| 2026-04-30 19:49 | 22.31207 | 115.82750 | 36111 ft | 431 kts | 240° |
| 2026-04-30 19:49 | 22.29381 | 115.76696 | 36111 ft | 427 kts | 265° |
| 2026-04-30 19:49 | 22.29217 | 115.73499 | 36111 ft | 427 kts | 267° |
| 2026-04-30 19:50 | 22.29009 | 115.67116 | 36114 ft | 428 kts | 267° |
| 2026-04-30 19:50 | 22.28780 | 115.60684 | 36114 ft | 430 kts | 267° |
| 2026-04-30 19:51 | 22.28535 | 115.54211 | 36114 ft | 432 kts | 267° |
| 2026-04-30 19:51 | 22.28283 | 115.47717 | 36106 ft | 433 kts | 267° |
| 2026-04-30 19:52 | 22.28027 | 115.41226 | 36115 ft | 433 kts | 267° |
| 2026-04-30 19:52 | 22.27768 | 115.34730 | 36095 ft | 433 kts | 267° |
| 2026-04-30 19:53 | 22.27513 | 115.28371 | 35794 ft | 414 kts | 267° |
| 2026-04-30 19:53 | 22.27386 | 115.25256 | 34994 ft | 417 kts | 267° |
| 2026-04-30 19:53 | 22.27258 | 115.22107 | 34096 ft | 423 kts | 267° |
| 2026-04-30 19:54 | 22.27127 | 115.18919 | 33058 ft | 428 kts | 267° |
| 2026-04-30 19:54 | 22.26994 | 115.15696 | 32071 ft | 431 kts | 267° |
| 2026-04-30 19:54 | 22.26861 | 115.12465 | 31176 ft | 431 kts | 267° |
| 2026-04-30 19:54 | 22.26727 | 115.09229 | 30247 ft | 432 kts | 267° |
| 2026-04-30 19:55 | 22.26591 | 115.05980 | 29164 ft | 433 kts | 267° |
| 2026-04-30 19:55 | 22.26455 | 115.02739 | 28191 ft | 432 kts | 267° |
| 2026-04-30 19:55 | 22.26318 | 114.99505 | 27207 ft | 431 kts | 267° |
| 2026-04-30 19:55 | 22.26182 | 114.96278 | 26363 ft | 428 kts | 267° |
| 2026-04-30 19:56 | 22.26047 | 114.93105 | 25744 ft | 419 kts | 267° |
| 2026-04-30 19:56 | 22.25914 | 114.89986 | 25078 ft | 414 kts | 267° |
| 2026-04-30 19:56 | 22.25781 | 114.86889 | 24422 ft | 411 kts | 267° |
| 2026-04-30 19:56 | 22.25648 | 114.83815 | 23765 ft | 409 kts | 267° |
| 2026-04-30 19:57 | 22.25516 | 114.80765 | 23018 ft | 405 kts | 267° |
| 2026-04-30 19:57 | 22.25385 | 114.77749 | 22352 ft | 399 kts | 267° |
| 2026-04-30 19:57 | 22.25255 | 114.74781 | 21714 ft | 393 kts | 267° |
| 2026-04-30 19:57 | 22.25126 | 114.71847 | 21088 ft | 390 kts | 267° |
| 2026-04-30 19:58 | 22.24998 | 114.68929 | 20462 ft | 389 kts | 267° |
| 2026-04-30 19:58 | 22.24869 | 114.66027 | 19836 ft | 385 kts | 267° |
| 2026-04-30 19:58 | 22.24743 | 114.63192 | 19234 ft | 381 kts | 267° |
| 2026-04-30 19:58 | 22.24617 | 114.60349 | 18613 ft | 378 kts | 267° |
| 2026-04-30 19:59 | 22.24490 | 114.57514 | 17933 ft | 376 kts | 267° |
| 2026-04-30 19:59 | 22.24364 | 114.54709 | 17240 ft | 372 kts | 267° |
| 2026-04-30 19:59 | 22.24115 | 114.49187 | 15918 ft | 365 kts | 267° |
| 2026-04-30 20:00 | 22.23992 | 114.46465 | 15292 ft | 361 kts | 266° |
| 2026-04-30 20:00 | 22.23870 | 114.43803 | 14665 ft | 358 kts | 266° |
| 2026-04-30 20:00 | 22.23789 | 114.42023 | 14238 ft | 357 kts | 266° |
| 2026-04-30 20:00 | 22.23667 | 114.39358 | 13547 ft | 356 kts | 266° |
| 2026-04-30 20:01 | 22.23422 | 114.34065 | 12202 ft | 349 kts | 266° |
| 2026-04-30 20:01 | 22.23301 | 114.31458 | 11530 ft | 346 kts | 266° |
| 2026-04-30 20:01 | 22.23181 | 114.28878 | 10901 ft | 342 kts | 267° |
| 2026-04-30 20:02 | 22.22952 | 114.23985 | 10559 ft | 307 kts | 266° |
| 2026-04-30 20:02 | 22.22844 | 114.21750 | 10473 ft | 289 kts | 266° |
| 2026-04-30 20:03 | 22.22653 | 114.17622 | 10255 ft | 264 kts | 267° |
| 2026-04-30 20:03 | 22.22561 | 114.15681 | 10139 ft | 255 kts | 266° |
| 2026-04-30 20:03 | 22.22472 | 114.13794 | 10033 ft | 250 kts | 266° |
| 2026-04-30 20:03 | 22.22382 | 114.11913 | 9830 ft | 253 kts | 267° |
| 2026-04-30 20:04 | 22.22291 | 114.10007 | 9356 ft | 256 kts | 266° |
| 2026-04-30 20:04 | 22.22199 | 114.08082 | 8944 ft | 258 kts | 266° |
| 2026-04-30 20:04 | 22.22106 | 114.06142 | 8555 ft | 259 kts | 266° |
| 2026-04-30 20:05 | 22.21949 | 114.02237 | 7820 ft | 262 kts | 268° |
| 2026-04-30 20:05 | 22.21911 | 114.00239 | 7559 ft | 270 kts | 268° |
| 2026-04-30 20:05 | 22.21843 | 113.96171 | 6791 ft | 271 kts | 268° |
| 2026-04-30 20:06 | 22.21809 | 113.94145 | 6453 ft | 267 kts | 268° |
| 2026-04-30 20:06 | 22.21777 | 113.92196 | 6246 ft | 259 kts | 268° |
| 2026-04-30 20:06 | 22.21783 | 113.90291 | 6073 ft | 250 kts | 274° |
| 2026-04-30 20:06 | 22.22300 | 113.88540 | 5857 ft | 246 kts | 302° |
| 2026-04-30 20:07 | 22.23577 | 113.87340 | 5581 ft | 247 kts | 335° |
| 2026-04-30 20:07 | 22.25258 | 113.87078 | 5228 ft | 248 kts | 9° |
| 2026-04-30 20:07 | 22.27981 | 113.89152 | 4694 ft | 241 kts | 51° |
| 2026-04-30 20:08 | 22.29061 | 113.90525 | 4517 ft | 239 kts | 48° |
| 2026-04-30 20:08 | 22.30211 | 113.91769 | 4473 ft | 228 kts | 47° |
| 2026-04-30 20:08 | 22.31099 | 113.93120 | 4470 ft | 217 kts | 67° |
| 2026-04-30 20:08 | 22.31491 | 113.94671 | 4485 ft | 214 kts | 83° |
| 2026-04-30 20:09 | 22.31653 | 113.96267 | 4490 ft | 214 kts | 86° |
| 2026-04-30 20:09 | 22.31783 | 113.97888 | 4260 ft | 223 kts | 86° |
| 2026-04-30 20:09 | 22.32156 | 114.01371 | 3711 ft | 241 kts | 83° |
| 2026-04-30 20:10 | 22.32588 | 114.05036 | 3389 ft | 261 kts | 85° |
| 2026-04-30 20:10 | 22.32774 | 114.07123 | 3342 ft | 292 kts | 81° |
| 2026-04-30 20:10 | 22.33160 | 114.09322 | 2904 ft | 298 kts | 79° |
| 2026-04-30 20:11 | 22.33509 | 114.13449 | 1863 ft | 256 kts | 90° |
| 2026-04-30 20:11 | 22.33446 | 114.15284 | 1703 ft | 234 kts | 92° |
| 2026-04-30 20:11 | 22.33368 | 114.17036 | 981 ft | 236 kts | 93° |
| 2026-04-30 20:12 | 22.31915 | 114.19942 | 55 ft | 218 kts | 134° |
| 2026-04-30 20:12 | 22.30988 | 114.21004 | 41 ft | 161 kts | 139° |
| 2026-04-30 20:12 | 22.30456 | 114.21585 | 40 ft | 37 kts | 127° |
| 2026-04-30 20:13 | 22.30444 | 114.21603 | 40 ft | 0 kts | 127° |